createdAt,value
2019-05-14T00:00:32.225Z,1.95
2019-05-14T00:03:02.281Z,1.90
2019-05-14T00:05:32.190Z,2.10
2019-05-14T00:08:02.266Z,1.75
2019-05-14T00:10:32.241Z,2.10
2019-05-14T00:13:01.651Z,2.52
2019-05-14T00:15:32.214Z,1.72
2019-05-14T00:18:01.362Z,2.40
2019-05-14T00:20:31.446Z,2.35
2019-05-14T00:23:01.460Z,2.30
2019-05-14T00:25:31.355Z,2.12
2019-05-14T00:28:01.367Z,1.87
2019-05-14T00:30:31.628Z,1.62
2019-05-14T00:33:01.238Z,1.62
2019-05-14T00:35:32.043Z,1.85
2019-05-14T00:38:01.268Z,2.08
2019-05-14T00:40:31.411Z,1.80
2019-05-14T00:43:02.558Z,1.95
2019-05-14T00:45:31.311Z,2.22
2019-05-14T00:48:01.482Z,1.85
2019-05-14T00:50:31.720Z,2.27
2019-05-14T00:53:01.962Z,2.83
2019-05-14T00:55:31.634Z,2.10
2019-05-14T00:58:02.411Z,2.00
2019-05-14T01:00:31.380Z,2.02
2019-05-14T01:03:02.074Z,2.00
2019-05-14T01:05:32.147Z,1.75
2019-05-14T01:08:01.904Z,2.37
2019-05-14T01:13:01.143Z,2.60
2019-05-14T01:15:32.187Z,2.15
2019-05-14T01:18:02.121Z,1.75
2019-05-14T01:20:31.907Z,1.90
2019-05-14T01:25:31.736Z,2.10
2019-05-14T01:28:02.075Z,2.42
2019-05-14T01:30:31.927Z,2.58
2019-05-14T01:33:01.747Z,2.17
2019-05-14T01:35:31.609Z,2.20
2019-05-14T01:38:02.699Z,2.20
2019-05-14T01:40:31.666Z,1.70
2019-05-14T01:43:02.621Z,2.60
2019-05-14T01:45:31.648Z,2.00
2019-05-14T01:50:32.129Z,2.62
2019-05-14T01:53:01.205Z,1.98
2019-05-14T01:55:32.293Z,2.92
2019-05-14T01:58:02.301Z,2.40
2019-05-14T02:00:31.431Z,2.15
2019-05-14T02:03:01.787Z,2.17
2019-05-14T02:05:31.200Z,1.90
2019-05-14T02:08:01.753Z,2.20
2019-05-14T02:10:31.498Z,2.27
2019-05-14T02:13:01.964Z,2.05
2019-05-14T02:15:39.576Z,1.90
2019-05-14T02:18:02.356Z,2.00
2019-05-14T02:20:32.183Z,2.33
2019-05-14T02:25:32.009Z,2.37
2019-05-14T02:28:01.466Z,2.47
2019-05-14T02:30:45.030Z,2.60
2019-05-14T02:33:00.846Z,2.12
2019-05-14T02:35:29.950Z,1.98
2019-05-14T02:37:59.615Z,2.45
2019-05-14T02:42:59.366Z,2.17
2019-05-14T02:45:30.303Z,2.30
2019-05-14T02:48:00.237Z,2.17
2019-05-14T02:50:29.617Z,2.15
2019-05-14T02:52:59.812Z,2.20
2019-05-14T02:55:29.883Z,1.87
2019-05-14T02:57:59.856Z,2.17
2019-05-14T03:00:30.201Z,1.92
2019-05-14T03:02:59.780Z,2.02
2019-05-14T03:07:59.948Z,1.72
2019-05-14T03:10:30.210Z,1.85
2019-05-14T03:12:59.403Z,1.90
2019-05-14T03:15:29.146Z,1.63
2019-05-14T03:17:59.867Z,1.55
2019-05-14T03:20:29.031Z,1.90
2019-05-14T03:23:04.927Z,1.55
2019-05-14T03:25:30.135Z,1.85
2019-05-14T03:27:59.888Z,1.90
2019-05-14T03:30:32.228Z,1.75
2019-05-14T03:33:02.601Z,1.82
2019-05-14T03:35:41.177Z,2.17
2019-05-14T03:38:00.666Z,2.08
2019-05-14T03:40:29.623Z,2.20
2019-05-14T03:42:59.935Z,1.70
2019-05-14T03:45:29.977Z,2.00
2019-05-14T03:47:59.179Z,1.80
2019-05-14T03:50:29.836Z,2.10
2019-05-14T03:52:59.425Z,1.60
2019-05-14T03:55:29.379Z,1.60
2019-05-14T04:03:13.750Z,1.70
2019-05-14T04:05:42.623Z,1.55
2019-05-14T04:08:13.530Z,2.03
2019-05-14T04:10:52.716Z,2.27
2019-05-14T04:13:19.593Z,2.10
2019-05-14T04:15:49.777Z,1.85
2019-05-14T04:18:20.265Z,2.05
2019-05-14T04:20:50.329Z,1.98
2019-05-14T04:23:22.148Z,2.27
2019-05-14T04:25:52.969Z,2.70
2019-05-14T04:28:22.796Z,2.75
2019-05-14T04:30:54.286Z,2.30
2019-05-14T04:33:30.145Z,2.12
2019-05-14T04:36:00.780Z,1.98
2019-05-14T04:38:30.054Z,2.40
2019-05-14T04:40:59.956Z,2.50
2019-05-14T04:43:29.573Z,2.50
2019-05-14T04:45:59.381Z,2.55
2019-05-14T04:48:36.926Z,2.40
2019-05-14T04:51:00.541Z,2.70
2019-05-14T04:53:30.716Z,3.60
2019-05-14T04:56:00.328Z,2.85
2019-05-14T04:58:30.018Z,3.35
2019-05-14T05:03:31.529Z,3.87
2019-05-14T05:05:59.191Z,4.30
2019-05-14T05:08:30.668Z,6.95
2019-05-14T05:11:00.112Z,2.72
2019-05-14T05:13:29.335Z,2.90
2019-05-14T05:15:59.396Z,3.80
2019-05-14T05:18:29.551Z,9.48
2019-05-14T05:20:58.644Z,3.00
2019-05-14T05:23:28.192Z,3.10
2019-05-14T05:25:58.624Z,3.95
2019-05-14T05:28:28.294Z,3.05
2019-05-14T05:33:29.145Z,7.28
2019-05-14T05:35:59.329Z,6.17
2019-05-14T05:38:29.211Z,6.10
2019-05-14T05:41:00.316Z,7.00
2019-05-14T05:43:28.799Z,11.05
2019-05-14T05:45:59.250Z,12.03
2019-05-14T05:48:28.553Z,7.17
2019-05-14T05:50:59.090Z,9.23
2019-05-14T05:53:28.703Z,10.08
2019-05-14T05:55:59.259Z,7.25
2019-05-14T05:58:29.825Z,5.05
2019-05-14T06:00:59.304Z,5.25
2019-05-14T06:03:30.053Z,3.30
2019-05-14T06:05:59.531Z,3.83
2019-05-14T06:10:59.192Z,3.65
2019-05-14T06:13:28.709Z,3.27
2019-05-14T06:15:59.108Z,3.17
2019-05-14T06:18:28.726Z,5.03
2019-05-14T06:20:58.559Z,2.60
2019-05-14T06:23:28.425Z,3.25
2019-05-14T06:25:59.691Z,2.60
2019-05-14T06:28:32.385Z,2.90
2019-05-14T06:30:59.127Z,3.67
2019-05-14T06:35:59.195Z,3.20
2019-05-14T06:38:29.446Z,4.42
2019-05-14T06:40:59.247Z,2.92
2019-05-14T06:43:28.862Z,2.65
2019-05-14T06:45:59.238Z,3.08
2019-05-14T06:48:33.603Z,2.90
2019-05-14T06:50:58.523Z,2.50
2019-05-14T06:53:29.067Z,2.87
2019-05-14T06:55:58.763Z,3.05
2019-05-14T07:00:58.736Z,2.83
2019-05-14T07:03:28.108Z,4.78
2019-05-14T07:05:59.362Z,2.25
2019-05-14T07:08:28.481Z,2.40
2019-05-14T07:10:59.292Z,3.33
2019-05-14T07:13:29.263Z,2.20
2019-05-14T07:15:58.503Z,2.80
2019-05-14T07:18:30.259Z,3.47
2019-05-14T07:20:58.863Z,2.55
2019-05-14T07:23:28.901Z,2.47
2019-05-14T07:25:58.942Z,3.70
2019-05-14T07:28:28.943Z,2.85
2019-05-14T07:30:59.390Z,4.05
2019-05-14T07:33:29.373Z,3.15
2019-05-14T07:35:59.451Z,2.80
2019-05-14T07:38:28.580Z,3.20
2019-05-14T07:40:58.577Z,3.30
2019-05-14T07:43:28.717Z,2.45
2019-05-14T07:45:58.253Z,3.15
2019-05-14T07:48:28.736Z,3.02
2019-05-14T07:50:59.904Z,3.62
2019-05-14T07:53:36.057Z,2.27
2019-05-14T07:55:59.208Z,3.17
2019-05-14T08:00:58.626Z,3.42
2019-05-14T08:03:28.595Z,2.45
2019-05-14T08:05:58.891Z,2.50
2019-05-14T08:08:29.324Z,2.95
2019-05-14T08:10:59.183Z,3.20
2019-05-14T08:13:28.447Z,3.00
2019-05-14T08:15:58.430Z,3.12
2019-05-14T08:18:28.990Z,2.60
2019-05-14T08:20:59.214Z,2.80
2019-05-14T08:23:28.378Z,2.52
2019-05-14T08:25:58.693Z,3.20
2019-05-14T08:28:29.034Z,2.65
2019-05-14T08:30:58.477Z,3.30
2019-05-14T08:33:29.074Z,2.80
2019-05-14T08:35:58.300Z,3.12
2019-05-14T08:38:28.421Z,3.02
2019-05-14T08:40:58.922Z,2.40
2019-05-14T08:43:29.090Z,3.30
2019-05-14T08:45:58.726Z,2.77
2019-05-14T08:48:29.663Z,2.52
2019-05-14T08:50:58.796Z,2.45
2019-05-14T08:53:28.874Z,3.45
2019-05-14T08:55:58.923Z,2.70
2019-05-14T08:58:29.987Z,4.22
2019-05-14T09:00:58.790Z,2.83
2019-05-14T09:03:28.793Z,2.60
2019-05-14T09:06:00.549Z,2.50
2019-05-14T09:08:28.565Z,2.55
2019-05-14T09:10:58.961Z,3.00
2019-05-14T09:13:28.951Z,2.75
2019-05-14T09:15:58.390Z,3.12
2019-05-14T09:18:29.114Z,2.30
2019-05-14T09:20:58.241Z,2.37
2019-05-14T09:23:28.624Z,2.47
2019-05-14T09:25:58.791Z,2.70
2019-05-14T09:28:28.539Z,2.10
2019-05-14T09:36:09.516Z,2.67
2019-05-14T09:38:25.517Z,2.80
2019-05-14T09:41:08.393Z,4.72
2019-05-14T09:43:24.800Z,2.92
2019-05-14T09:45:53.552Z,2.75
2019-05-14T09:48:22.356Z,2.75
2019-05-14T09:50:51.097Z,2.17
2019-05-14T09:53:19.915Z,2.97
2019-05-14T09:55:49.230Z,2.80
2019-05-14T09:58:19.978Z,3.08
2019-05-14T10:00:48.670Z,11.57
2019-05-14T10:03:19.198Z,2.45
2019-05-14T10:05:50.192Z,2.55
2019-05-14T10:08:19.293Z,2.77
2019-05-14T10:10:48.869Z,2.15
2019-05-14T10:13:17.741Z,2.75
2019-05-14T10:15:48.606Z,2.55
2019-05-14T10:18:18.825Z,2.60
2019-05-14T10:20:49.320Z,2.00
2019-05-14T10:23:18.895Z,2.25
2019-05-14T10:25:47.811Z,2.60
2019-05-14T10:28:19.071Z,2.50
2019-05-14T10:30:49.094Z,2.20
2019-05-14T10:33:18.133Z,2.17
2019-05-14T10:35:48.389Z,2.25
2019-05-14T10:38:19.059Z,2.83
2019-05-14T10:40:48.027Z,1.80
2019-05-14T10:43:18.874Z,4.58
2019-05-14T10:45:49.450Z,2.70
2019-05-14T10:48:20.371Z,3.10
2019-05-14T10:50:59.146Z,3.22
2019-05-14T10:53:20.330Z,2.00
2019-05-14T10:55:49.398Z,1.92
2019-05-14T10:58:19.613Z,2.25
2019-05-14T11:00:49.506Z,2.30
2019-05-14T11:03:18.676Z,1.82
2019-05-14T11:05:48.155Z,2.10
2019-05-14T11:08:18.942Z,3.05
2019-05-14T11:10:49.864Z,3.35
2019-05-14T11:13:19.004Z,2.08
2019-05-14T11:15:48.733Z,2.02
2019-05-14T11:18:19.756Z,2.27
2019-05-14T11:20:51.544Z,2.40
2019-05-14T11:23:18.659Z,2.50
2019-05-14T11:25:48.711Z,2.10
2019-05-14T11:28:19.097Z,2.50
2019-05-14T11:30:49.458Z,2.00
2019-05-14T11:33:18.797Z,2.25
2019-05-14T11:35:47.716Z,2.12
2019-05-14T11:38:28.416Z,2.85
2019-05-14T11:40:49.311Z,2.42
2019-05-14T11:43:17.321Z,2.47
2019-05-14T11:45:48.321Z,3.40
2019-05-14T11:48:19.076Z,2.40
2019-05-14T11:50:49.195Z,2.67
2019-05-14T11:53:20.068Z,2.95
2019-05-14T11:55:50.313Z,2.75
2019-05-14T11:58:20.839Z,3.25
2019-05-14T12:00:48.741Z,3.40
2019-05-14T12:03:19.555Z,2.62
2019-05-14T12:05:49.399Z,2.70
2019-05-14T12:08:18.792Z,2.87
2019-05-14T12:10:47.628Z,2.30
2019-05-14T12:13:16.457Z,2.70
2019-05-14T12:15:48.548Z,2.95
2019-05-14T12:18:18.592Z,3.40
2019-05-14T12:20:49.683Z,2.80
2019-05-14T12:23:19.231Z,2.72
2019-05-14T12:25:49.147Z,3.08
2019-05-14T12:28:19.131Z,2.80
2019-05-14T12:30:48.983Z,2.90
2019-05-14T12:33:19.736Z,2.47
2019-05-14T12:35:49.437Z,2.50
2019-05-14T12:38:18.939Z,2.80
2019-05-14T12:40:47.669Z,2.72
2019-05-14T12:43:18.698Z,2.70
2019-05-14T12:45:46.861Z,2.92
2019-05-14T12:48:15.671Z,2.72
2019-05-14T12:50:44.629Z,2.90
2019-05-14T12:53:13.443Z,2.22
2019-05-14T12:55:43.028Z,2.70
2019-05-14T13:00:39.849Z,2.55
2019-05-14T13:03:09.138Z,3.10
2019-05-14T13:05:38.855Z,2.95
2019-05-14T13:08:11.280Z,2.60
2019-05-14T13:10:38.574Z,2.83
2019-05-14T13:13:08.414Z,2.60
2019-05-14T13:15:39.317Z,3.00
2019-05-14T13:18:08.729Z,2.80
2019-05-14T13:20:38.941Z,4.60
2019-05-14T13:23:10.033Z,3.55
2019-05-14T13:25:39.521Z,3.60
2019-05-14T13:28:09.085Z,3.50
2019-05-14T13:30:37.955Z,2.95
2019-05-14T13:33:08.844Z,2.98
2019-05-14T13:35:38.889Z,2.72
2019-05-14T13:38:13.878Z,2.40
2019-05-14T13:40:39.199Z,2.70
2019-05-14T13:43:09.891Z,2.77
2019-05-14T13:45:39.231Z,2.60
2019-05-14T13:50:40.088Z,3.35
2019-05-14T13:53:12.492Z,3.70
2019-05-14T13:55:46.014Z,3.90
2019-05-14T13:58:09.400Z,3.98
2019-05-14T14:00:38.584Z,3.22
2019-05-14T14:03:09.781Z,3.20
2019-05-14T14:05:39.302Z,4.10
2019-05-14T14:08:08.767Z,5.08
2019-05-14T14:10:44.968Z,4.30
2019-05-14T14:13:11.321Z,4.25
2019-05-14T14:15:38.602Z,4.00
2019-05-14T14:18:07.396Z,4.67
2019-05-14T14:20:36.142Z,4.15
2019-05-14T14:23:18.977Z,4.50
2019-05-14T14:25:35.338Z,6.30
2019-05-14T14:28:04.163Z,6.83
2019-05-14T14:30:32.962Z,4.30
2019-05-14T14:33:01.793Z,4.42
2019-05-14T14:35:30.622Z,4.42
2019-05-14T14:37:59.386Z,3.58
2019-05-14T14:40:30.192Z,3.87
2019-05-14T14:42:59.464Z,4.50
2019-05-14T14:45:29.204Z,3.75
2019-05-14T14:48:01.245Z,3.22
2019-05-14T14:50:29.101Z,3.25
2019-05-14T14:52:59.866Z,3.52
2019-05-14T14:55:30.511Z,3.70
2019-05-14T14:57:58.840Z,4.97
2019-05-14T15:00:29.423Z,3.87
2019-05-14T15:02:59.669Z,4.20
2019-05-14T15:05:29.578Z,4.58
2019-05-14T15:08:00.238Z,5.80
2019-05-14T15:10:29.122Z,3.85
2019-05-14T15:12:58.920Z,4.23
2019-05-14T15:15:27.911Z,5.17
2019-05-14T15:17:56.668Z,4.08
2019-05-14T15:20:25.492Z,3.55
2019-05-14T15:22:54.243Z,2.72
2019-05-14T15:25:23.051Z,7.20
2019-05-14T15:27:51.804Z,2.77
2019-05-14T15:30:20.614Z,2.33
2019-05-14T15:32:51.375Z,2.20
2019-05-14T15:35:19.815Z,3.27
2019-05-14T15:37:48.853Z,2.72
2019-05-14T15:40:22.012Z,2.60
2019-05-14T15:42:49.731Z,2.55
2019-05-14T15:45:18.906Z,2.77
2019-05-14T15:47:48.434Z,2.70
2019-05-14T15:50:20.104Z,3.33
2019-05-14T15:52:48.823Z,3.62
2019-05-14T15:55:18.334Z,3.15
2019-05-14T16:00:16.281Z,3.55
2019-05-14T16:02:50.174Z,3.30
2019-05-14T16:05:18.880Z,3.58
2019-05-14T16:07:49.829Z,3.15
2019-05-14T16:10:21.706Z,2.25
2019-05-14T16:12:51.016Z,2.50
2019-05-14T16:15:19.894Z,2.25
2019-05-14T16:18:04.516Z,2.37
2019-05-14T16:20:19.136Z,2.10
2019-05-14T16:22:47.955Z,2.37
2019-05-14T16:25:18.940Z,2.75
2019-05-14T16:27:47.177Z,2.20
2019-05-14T16:30:16.015Z,2.52
2019-05-14T16:32:45.624Z,2.27
2019-05-14T16:37:42.363Z,2.72
2019-05-14T16:40:11.634Z,2.53
2019-05-14T16:42:40.385Z,2.80
2019-05-14T16:45:11.085Z,3.17
2019-05-14T16:47:40.195Z,2.72
2019-05-14T16:50:09.570Z,2.80
2019-05-14T16:52:42.246Z,3.00
2019-05-14T16:55:22.989Z,2.65
2019-05-14T16:57:39.351Z,1.87
2019-05-14T17:00:10.539Z,2.92
2019-05-14T17:02:40.642Z,3.62
2019-05-14T17:05:09.950Z,2.50
2019-05-14T17:07:38.868Z,2.70
2019-05-14T17:10:08.542Z,1.82
2019-05-14T17:12:52.443Z,1.95
2019-05-14T17:15:12.202Z,2.22
2019-05-14T17:17:41.028Z,3.00
2019-05-14T17:20:09.784Z,2.52
2019-05-14T17:22:39.676Z,1.87
2019-05-14T17:25:09.803Z,2.00
2019-05-14T17:27:40.087Z,2.37
2019-05-14T17:30:09.096Z,1.85
2019-05-14T17:32:39.125Z,2.00
2019-05-14T17:35:08.863Z,6.80
2019-05-14T17:37:41.061Z,1.98
2019-05-14T17:40:10.204Z,2.08
2019-05-14T17:42:39.828Z,2.83
2019-05-14T17:47:38.705Z,2.67
2019-05-14T17:50:09.350Z,2.15
2019-05-14T17:52:44.443Z,1.85
2019-05-14T17:55:12.018Z,2.22
2019-05-14T17:57:46.861Z,3.35
2019-05-14T18:00:11.956Z,2.35
2019-05-14T18:02:41.509Z,3.83
2019-05-14T18:07:38.932Z,3.08
2019-05-14T18:10:08.990Z,2.55
2019-05-14T18:12:39.640Z,2.70
2019-05-14T18:15:08.870Z,2.58
2019-05-14T18:17:39.332Z,2.80
2019-05-14T18:20:08.803Z,2.80
2019-05-14T18:22:42.225Z,2.55
2019-05-14T18:25:09.578Z,2.55
2019-05-14T18:27:39.390Z,3.40
2019-05-14T18:30:09.400Z,2.72
2019-05-14T18:32:38.298Z,2.30
2019-05-14T18:35:07.491Z,3.10
2019-05-14T18:37:38.644Z,2.50
2019-05-14T18:40:09.137Z,2.92
2019-05-14T18:42:39.131Z,2.35
2019-05-14T18:45:08.818Z,2.20
2019-05-14T18:47:39.875Z,2.22
2019-05-14T18:50:08.941Z,2.47
2019-05-14T18:52:40.018Z,2.60
2019-05-14T18:55:08.918Z,2.60
2019-05-14T18:57:38.201Z,2.72
2019-05-14T19:00:08.837Z,2.27
2019-05-14T19:02:39.260Z,3.00
2019-05-14T19:05:09.166Z,3.70
2019-05-14T19:12:38.806Z,2.25
2019-05-14T19:15:09.325Z,3.05
2019-05-14T19:17:38.819Z,2.20
2019-05-14T19:22:39.478Z,1.98
2019-05-14T19:25:08.362Z,2.17
2019-05-14T19:27:38.060Z,1.82
2019-05-14T19:30:08.383Z,2.50
2019-05-14T19:32:39.274Z,1.90
2019-05-14T19:35:08.868Z,1.90
2019-05-14T19:37:39.072Z,1.80
2019-05-14T19:40:09.220Z,2.55
2019-05-14T19:42:39.249Z,2.08
2019-05-14T19:45:08.539Z,2.20
2019-05-14T19:47:39.761Z,1.72
2019-05-14T19:50:08.982Z,2.12
2019-05-14T19:57:35.448Z,2.25
2019-05-14T20:00:06.289Z,2.02
2019-05-14T20:02:35.020Z,1.85
2019-05-14T20:05:05.559Z,2.03
2019-05-14T20:07:35.096Z,1.95
2019-05-14T20:10:05.571Z,2.30
2019-05-14T20:12:34.322Z,2.62
2019-05-14T20:15:03.160Z,2.63
2019-05-14T20:17:31.911Z,2.75
2019-05-14T20:20:00.716Z,2.20
2019-05-14T20:22:29.466Z,2.10
2019-05-14T20:24:58.973Z,2.80
2019-05-14T20:27:28.218Z,2.00
2019-05-14T20:29:58.092Z,2.33
2019-05-14T20:32:26.957Z,3.08
2019-05-14T20:34:57.903Z,2.35
2019-05-14T20:37:26.165Z,2.22
2019-05-14T20:39:54.987Z,2.97
2019-05-14T20:42:23.781Z,2.27
2019-05-14T20:44:52.603Z,2.20
2019-05-14T20:47:21.351Z,1.95
2019-05-14T20:49:50.169Z,2.10
2019-05-14T20:52:19.466Z,2.53
2019-05-14T20:54:48.298Z,2.58
2019-05-14T20:57:26.428Z,2.70
2019-05-14T20:59:48.262Z,2.05
2019-05-14T21:04:53.345Z,2.60
2019-05-14T21:07:17.241Z,2.30
2019-05-14T21:09:45.985Z,2.40
2019-05-14T21:12:16.205Z,2.50
2019-05-14T21:14:44.935Z,2.20
2019-05-14T21:17:13.759Z,3.90
2019-05-14T21:19:42.506Z,2.23
2019-05-14T21:22:11.330Z,2.70
2019-05-14T21:24:40.113Z,2.60
2019-05-14T21:27:09.418Z,2.73
2019-05-14T21:29:38.430Z,3.72
2019-05-14T21:32:08.211Z,3.15
2019-05-14T21:34:38.215Z,2.50
2019-05-14T21:37:09.006Z,2.52
2019-05-14T21:39:38.246Z,2.22
2019-05-14T21:42:10.947Z,2.52
2019-05-14T21:44:39.224Z,2.77
2019-05-14T21:47:08.404Z,2.77
2019-05-14T21:49:39.004Z,3.40
2019-05-14T21:52:09.031Z,2.87
2019-05-14T21:54:39.523Z,2.30
2019-05-14T21:57:11.648Z,2.00
2019-05-14T21:59:39.081Z,2.95
2019-05-14T22:02:08.353Z,2.80
2019-05-14T22:04:38.478Z,2.52
2019-05-14T22:07:09.061Z,2.10
2019-05-14T22:09:40.968Z,2.83
2019-05-14T22:12:08.501Z,2.72
2019-05-14T22:14:37.967Z,2.77
2019-05-14T22:17:08.029Z,2.05
2019-05-14T22:19:38.425Z,2.50
2019-05-14T22:22:08.057Z,1.98
2019-05-14T22:24:38.359Z,2.25
2019-05-14T22:27:09.431Z,1.95
2019-05-14T22:29:37.671Z,1.98
2019-05-14T22:32:08.255Z,2.10
2019-05-14T22:34:38.510Z,1.82
2019-05-14T22:37:07.555Z,1.95
2019-05-14T22:39:38.907Z,2.20
2019-05-14T22:42:09.034Z,1.52
2019-05-14T22:44:37.290Z,2.22
2019-05-14T22:47:08.055Z,2.20
2019-05-14T22:49:36.548Z,2.17
2019-05-14T22:52:05.367Z,1.80
2019-05-14T22:54:34.179Z,2.53
2019-05-14T22:57:02.973Z,2.30
2019-05-14T22:59:31.784Z,2.27
2019-05-14T23:02:00.542Z,2.40
2019-05-14T23:04:29.651Z,2.17
2019-05-14T23:06:58.728Z,2.05
2019-05-14T23:09:27.583Z,2.10
2019-05-14T23:11:58.778Z,2.97
2019-05-14T23:14:28.178Z,2.00
2019-05-14T23:16:57.014Z,1.98
2019-05-14T23:19:25.809Z,2.10
2019-05-14T23:21:54.538Z,2.80
2019-05-14T23:24:23.351Z,2.30
2019-05-14T23:26:52.097Z,2.27
2019-05-14T23:29:21.075Z,2.10
2019-05-14T23:31:49.820Z,2.25
2019-05-14T23:34:19.048Z,2.80
2019-05-14T23:36:48.371Z,2.30
2019-05-14T23:39:17.180Z,2.10
2019-05-14T23:41:45.934Z,2.00
2019-05-14T23:44:14.751Z,2.13
2019-05-14T23:46:43.516Z,1.73
2019-05-14T23:49:12.327Z,2.10
2019-05-14T23:51:41.067Z,2.20
2019-05-14T23:54:09.863Z,2.20
2019-05-14T23:56:38.726Z,2.20
2019-05-14T23:59:09.294Z,2.03
